sensor_id;sensor_type;location;lat;lon;timestamp;temperature;humidity
44117;DHT22;29781;49.480;8.512;2022-11-24T00:00:49;9.10;99.90
44117;DHT22;29781;49.480;8.512;2022-11-24T00:03:15;9.20;99.90
44117;DHT22;29781;49.480;8.512;2022-11-24T00:05:40;9.20;99.90
44117;DHT22;29781;49.480;8.512;2022-11-24T00:08:06;9.20;99.90
44117;DHT22;29781;49.480;8.512;2022-11-24T00:10:32;9.20;99.90
44117;DHT22;29781;49.480;8.512;2022-11-24T00:12:57;9.30;99.90
44117;DHT22;29781;49.480;8.512;2022-11-24T00:15:23;9.30;99.90
44117;DHT22;29781;49.480;8.512;2022-11-24T00:17:48;9.30;99.90
44117;DHT22;29781;49.480;8.512;2022-11-24T00:20:14;9.30;99.90
44117;DHT22;29781;49.480;8.512;2022-11-24T00:22:39;9.30;99.90
44117;DHT22;29781;49.480;8.512;2022-11-24T00:25:05;9.40;99.90
44117;DHT22;29781;49.480;8.512;2022-11-24T00:27:30;9.30;99.90
44117;DHT22;29781;49.480;8.512;2022-11-24T00:29:56;9.30;99.90
44117;DHT22;29781;49.480;8.512;2022-11-24T00:32:26;9.30;99.90
44117;DHT22;29781;49.480;8.512;2022-11-24T00:34:52;9.20;99.90
44117;DHT22;29781;49.480;8.512;2022-11-24T00:37:17;9.20;99.90
44117;DHT22;29781;49.480;8.512;2022-11-24T00:39:43;9.20;99.90
44117;DHT22;29781;49.480;8.512;2022-11-24T00:42:08;9.20;99.90
44117;DHT22;29781;49.480;8.512;2022-11-24T00:44:34;9.20;99.90
44117;DHT22;29781;49.480;8.512;2022-11-24T00:46:59;9.10;99.90
44117;DHT22;29781;49.480;8.512;2022-11-24T00:49:25;9.10;99.90
44117;DHT22;29781;49.480;8.512;2022-11-24T00:51:51;9.00;99.90
44117;DHT22;29781;49.480;8.512;2022-11-24T00:54:16;9.00;99.90
44117;DHT22;29781;49.480;8.512;2022-11-24T00:56:42;9.00;99.90
44117;DHT22;29781;49.480;8.512;2022-11-24T00:59:08;8.90;99.90
44117;DHT22;29781;49.480;8.512;2022-11-24T01:01:33;8.80;99.90
44117;DHT22;29781;49.480;8.512;2022-11-24T01:03:59;8.80;99.90
44117;DHT22;29781;49.480;8.512;2022-11-24T01:06:28;8.90;99.90
44117;DHT22;29781;49.480;8.512;2022-11-24T01:08:54;8.70;99.90
44117;DHT22;29781;49.480;8.512;2022-11-24T01:13:47;8.80;99.90
44117;DHT22;29781;49.480;8.512;2022-11-24T01:16:20;8.70;99.90
44117;DHT22;29781;49.480;8.512;2022-11-24T01:18:46;8.70;99.90
44117;DHT22;29781;49.480;8.512;2022-11-24T01:21:11;8.70;99.90
44117;DHT22;29781;49.480;8.512;2022-11-24T01:23:37;8.60;99.90
44117;DHT22;29781;49.480;8.512;2022-11-24T01:26:03;8.60;99.90
44117;DHT22;29781;49.480;8.512;2022-11-24T01:28:29;8.60;99.90
44117;DHT22;29781;49.480;8.512;2022-11-24T01:30:58;8.60;99.90
44117;DHT22;29781;49.480;8.512;2022-11-24T01:33:24;8.60;99.90
44117;DHT22;29781;49.480;8.512;2022-11-24T01:35:50;8.60;99.90
44117;DHT22;29781;49.480;8.512;2022-11-24T01:38:15;8.70;99.90
44117;DHT22;29781;49.480;8.512;2022-11-24T01:40:41;8.80;99.90
44117;DHT22;29781;49.480;8.512;2022-11-24T01:43:14;8.80;99.90
44117;DHT22;29781;49.480;8.512;2022-11-24T01:45:40;8.90;99.90
44117;DHT22;29781;49.480;8.512;2022-11-24T01:48:06;9.00;99.90
44117;DHT22;29781;49.480;8.512;2022-11-24T01:50:35;8.90;99.90
44117;DHT22;29781;49.480;8.512;2022-11-24T01:53:01;9.00;99.90
44117;DHT22;29781;49.480;8.512;2022-11-24T01:55:28;9.10;99.90
44117;DHT22;29781;49.480;8.512;2022-11-24T01:58:03;9.20;99.90
44117;DHT22;29781;49.480;8.512;2022-11-24T02:00:29;9.30;99.90
44117;DHT22;29781;49.480;8.512;2022-11-24T02:02:55;9.30;99.90
44117;DHT22;29781;49.480;8.512;2022-11-24T02:05:23;9.30;99.90
44117;DHT22;29781;49.480;8.512;2022-11-24T02:07:51;9.20;99.90
44117;DHT22;29781;49.480;8.512;2022-11-24T02:10:17;9.30;99.90
44117;DHT22;29781;49.480;8.512;2022-11-24T02:12:44;9.30;99.90
44117;DHT22;29781;49.480;8.512;2022-11-24T02:15:10;9.30;99.90
44117;DHT22;29781;49.480;8.512;2022-11-24T02:17:37;9.30;99.90
44117;DHT22;29781;49.480;8.512;2022-11-24T02:20:07;9.30;99.90
44117;DHT22;29781;49.480;8.512;2022-11-24T02:28:01;9.30;99.90
44117;DHT22;29781;49.480;8.512;2022-11-24T02:30:28;9.30;99.90
44117;DHT22;29781;49.480;8.512;2022-11-24T02:32:54;9.30;99.90
44117;DHT22;29781;49.480;8.512;2022-11-24T02:35:19;9.30;99.90
44117;DHT22;29781;49.480;8.512;2022-11-24T02:37:45;9.30;99.90
44117;DHT22;29781;49.480;8.512;2022-11-24T02:40:13;9.20;99.90
44117;DHT22;29781;49.480;8.512;2022-11-24T02:42:40;9.20;99.90
44117;DHT22;29781;49.480;8.512;2022-11-24T02:45:07;9.10;99.90
44117;DHT22;29781;49.480;8.512;2022-11-24T02:47:33;9.00;99.90
44117;DHT22;29781;49.480;8.512;2022-11-24T02:49:59;9.10;99.90
44117;DHT22;29781;49.480;8.512;2022-11-24T02:52:24;9.10;99.90
44117;DHT22;29781;49.480;8.512;2022-11-24T02:54:50;9.20;99.90
44117;DHT22;29781;49.480;8.512;2022-11-24T02:57:15;9.10;99.90
44117;DHT22;29781;49.480;8.512;2022-11-24T02:59:41;9.10;99.90
44117;DHT22;29781;49.480;8.512;2022-11-24T03:02:06;9.10;99.90
44117;DHT22;29781;49.480;8.512;2022-11-24T03:04:32;9.10;99.90
44117;DHT22;29781;49.480;8.512;2022-11-24T03:06:57;9.10;99.90
44117;DHT22;29781;49.480;8.512;2022-11-24T03:09:23;9.00;99.90
44117;DHT22;29781;49.480;8.512;2022-11-24T03:11:48;9.00;99.90
44117;DHT22;29781;49.480;8.512;2022-11-24T03:14:14;9.10;99.90
44117;DHT22;29781;49.480;8.512;2022-11-24T03:16:39;9.10;99.90
44117;DHT22;29781;49.480;8.512;2022-11-24T03:19:05;9.10;99.90
44117;DHT22;29781;49.480;8.512;2022-11-24T03:21:30;9.20;99.90
44117;DHT22;29781;49.480;8.512;2022-11-24T03:23:56;9.20;99.90
44117;DHT22;29781;49.480;8.512;2022-11-24T03:26:22;9.10;99.90
44117;DHT22;29781;49.480;8.512;2022-11-24T03:28:48;9.10;99.90
44117;DHT22;29781;49.480;8.512;2022-11-24T03:31:14;9.20;99.90
44117;DHT22;29781;49.480;8.512;2022-11-24T03:33:39;9.10;99.90
44117;DHT22;29781;49.480;8.512;2022-11-24T03:36:05;9.20;99.90
44117;DHT22;29781;49.480;8.512;2022-11-24T03:38:31;9.20;99.90
44117;DHT22;29781;49.480;8.512;2022-11-24T03:40:57;9.20;99.90
44117;DHT22;29781;49.480;8.512;2022-11-24T03:43:22;9.30;99.90
44117;DHT22;29781;49.480;8.512;2022-11-24T03:45:48;9.20;99.90
44117;DHT22;29781;49.480;8.512;2022-11-24T03:48:17;9.20;99.90
44117;DHT22;29781;49.480;8.512;2022-11-24T03:50:43;9.20;99.90
44117;DHT22;29781;49.480;8.512;2022-11-24T03:53:08;9.20;99.90
44117;DHT22;29781;49.480;8.512;2022-11-24T03:55:34;9.10;99.90
44117;DHT22;29781;49.480;8.512;2022-11-24T03:58:00;9.10;99.90
44117;DHT22;29781;49.480;8.512;2022-11-24T04:00:25;9.00;99.90
44117;DHT22;29781;49.480;8.512;2022-11-24T04:02:52;9.00;99.90
44117;DHT22;29781;49.480;8.512;2022-11-24T04:05:17;9.00;99.90
44117;DHT22;29781;49.480;8.512;2022-11-24T04:07:43;9.00;99.90
44117;DHT22;29781;49.480;8.512;2022-11-24T04:10:08;9.00;99.90
44117;DHT22;29781;49.480;8.512;2022-11-24T04:12:34;9.00;99.90
44117;DHT22;29781;49.480;8.512;2022-11-24T04:15:09;9.10;99.90
44117;DHT22;29781;49.480;8.512;2022-11-24T04:17:34;9.00;99.90
44117;DHT22;29781;49.480;8.512;2022-11-24T04:20:00;9.00;99.90
44117;DHT22;29781;49.480;8.512;2022-11-24T04:22:26;9.00;99.90
44117;DHT22;29781;49.480;8.512;2022-11-24T04:24:52;9.10;99.90
44117;DHT22;29781;49.480;8.512;2022-11-24T04:27:17;9.00;99.90
44117;DHT22;29781;49.480;8.512;2022-11-24T04:29:43;9.10;99.90
44117;DHT22;29781;49.480;8.512;2022-11-24T04:32:08;9.10;99.90
44117;DHT22;29781;49.480;8.512;2022-11-24T04:34:34;9.00;99.90
44117;DHT22;29781;49.480;8.512;2022-11-24T04:37:00;9.10;99.90
44117;DHT22;29781;49.480;8.512;2022-11-24T04:39:25;9.10;99.90
44117;DHT22;29781;49.480;8.512;2022-11-24T04:41:51;9.10;99.90
44117;DHT22;29781;49.480;8.512;2022-11-24T04:44:16;9.10;99.90
44117;DHT22;29781;49.480;8.512;2022-11-24T04:46:45;9.10;99.90
44117;DHT22;29781;49.480;8.512;2022-11-24T04:49:10;9.10;99.90
44117;DHT22;29781;49.480;8.512;2022-11-24T04:51:39;9.20;99.90
44117;DHT22;29781;49.480;8.512;2022-11-24T04:54:08;9.20;99.90
44117;DHT22;29781;49.480;8.512;2022-11-24T04:56:34;9.20;99.90
44117;DHT22;29781;49.480;8.512;2022-11-24T04:59:00;9.20;99.90
44117;DHT22;29781;49.480;8.512;2022-11-24T05:01:26;9.20;99.90
44117;DHT22;29781;49.480;8.512;2022-11-24T05:03:52;9.20;99.90
44117;DHT22;29781;49.480;8.512;2022-11-24T05:06:17;9.20;99.90
44117;DHT22;29781;49.480;8.512;2022-11-24T05:08:45;9.20;99.90
44117;DHT22;29781;49.480;8.512;2022-11-24T05:11:10;9.20;99.90
44117;DHT22;29781;49.480;8.512;2022-11-24T05:13:36;9.30;99.90
44117;DHT22;29781;49.480;8.512;2022-11-24T05:16:01;9.30;99.90
44117;DHT22;29781;49.480;8.512;2022-11-24T05:18:27;9.30;99.90
44117;DHT22;29781;49.480;8.512;2022-11-24T05:20:53;9.20;99.90
44117;DHT22;29781;49.480;8.512;2022-11-24T05:23:19;9.30;99.90
44117;DHT22;29781;49.480;8.512;2022-11-24T05:25:44;9.30;99.90
44117;DHT22;29781;49.480;8.512;2022-11-24T05:28:10;9.30;99.90
44117;DHT22;29781;49.480;8.512;2022-11-24T05:30:38;9.30;99.90
44117;DHT22;29781;49.480;8.512;2022-11-24T05:33:05;9.20;99.90
44117;DHT22;29781;49.480;8.512;2022-11-24T05:35:31;9.30;99.90
44117;DHT22;29781;49.480;8.512;2022-11-24T05:37:57;9.30;99.90
44117;DHT22;29781;49.480;8.512;2022-11-24T05:40:23;9.30;99.90
44117;DHT22;29781;49.480;8.512;2022-11-24T05:42:48;9.30;99.90
44117;DHT22;29781;49.480;8.512;2022-11-24T05:45:15;9.30;99.90
44117;DHT22;29781;49.480;8.512;2022-11-24T05:47:41;9.40;99.90
44117;DHT22;29781;49.480;8.512;2022-11-24T05:50:07;9.30;99.90
44117;DHT22;29781;49.480;8.512;2022-11-24T05:52:33;9.20;99.90
44117;DHT22;29781;49.480;8.512;2022-11-24T05:54:58;9.30;99.90
44117;DHT22;29781;49.480;8.512;2022-11-24T05:57:24;9.30;99.90
44117;DHT22;29781;49.480;8.512;2022-11-24T05:59:49;9.30;99.90
44117;DHT22;29781;49.480;8.512;2022-11-24T06:02:15;9.30;99.90
44117;DHT22;29781;49.480;8.512;2022-11-24T06:04:40;9.30;99.90
44117;DHT22;29781;49.480;8.512;2022-11-24T06:07:06;9.30;99.90
44117;DHT22;29781;49.480;8.512;2022-11-24T06:09:36;9.30;99.90
44117;DHT22;29781;49.480;8.512;2022-11-24T06:12:02;9.40;99.90
44117;DHT22;29781;49.480;8.512;2022-11-24T06:14:28;9.40;99.90
44117;DHT22;29781;49.480;8.512;2022-11-24T06:16:53;9.40;99.90
44117;DHT22;29781;49.480;8.512;2022-11-24T06:19:19;9.30;99.90
44117;DHT22;29781;49.480;8.512;2022-11-24T06:21:44;9.40;99.90
44117;DHT22;29781;49.480;8.512;2022-11-24T06:24:10;9.40;99.90
44117;DHT22;29781;49.480;8.512;2022-11-24T06:26:35;9.40;99.90
44117;DHT22;29781;49.480;8.512;2022-11-24T06:29:01;9.30;99.90
44117;DHT22;29781;49.480;8.512;2022-11-24T06:31:26;9.30;99.90
44117;DHT22;29781;49.480;8.512;2022-11-24T06:33:52;9.30;99.90
44117;DHT22;29781;49.480;8.512;2022-11-24T06:36:17;9.30;99.90
44117;DHT22;29781;49.480;8.512;2022-11-24T06:38:43;9.20;99.90
44117;DHT22;29781;49.480;8.512;2022-11-24T06:41:11;9.20;99.90
44117;DHT22;29781;49.480;8.512;2022-11-24T06:43:36;9.10;99.90
44117;DHT22;29781;49.480;8.512;2022-11-24T06:46:02;9.00;99.90
44117;DHT22;29781;49.480;8.512;2022-11-24T06:48:28;9.00;99.90
44117;DHT22;29781;49.480;8.512;2022-11-24T06:50:57;9.00;99.90
44117;DHT22;29781;49.480;8.512;2022-11-24T06:53:23;9.00;99.90
44117;DHT22;29781;49.480;8.512;2022-11-24T06:55:48;8.90;99.90
44117;DHT22;29781;49.480;8.512;2022-11-24T06:58:14;9.00;99.90
44117;DHT22;29781;49.480;8.512;2022-11-24T07:00:39;9.00;99.90
44117;DHT22;29781;49.480;8.512;2022-11-24T07:03:05;8.90;99.90
44117;DHT22;29781;49.480;8.512;2022-11-24T07:05:30;8.90;99.90
44117;DHT22;29781;49.480;8.512;2022-11-24T07:07:57;8.90;99.90
44117;DHT22;29781;49.480;8.512;2022-11-24T07:10:23;9.00;99.90
44117;DHT22;29781;49.480;8.512;2022-11-24T07:12:48;9.00;99.90
44117;DHT22;29781;49.480;8.512;2022-11-24T07:15:14;9.00;99.90
44117;DHT22;29781;49.480;8.512;2022-11-24T07:17:40;9.00;99.90
44117;DHT22;29781;49.480;8.512;2022-11-24T07:20:06;9.00;99.90
44117;DHT22;29781;49.480;8.512;2022-11-24T07:22:32;9.00;99.90
44117;DHT22;29781;49.480;8.512;2022-11-24T07:24:57;9.00;99.90
44117;DHT22;29781;49.480;8.512;2022-11-24T07:27:23;9.00;99.90
44117;DHT22;29781;49.480;8.512;2022-11-24T07:29:48;9.00;99.90
44117;DHT22;29781;49.480;8.512;2022-11-24T07:32:14;9.00;99.90
44117;DHT22;29781;49.480;8.512;2022-11-24T07:34:40;9.00;99.90
44117;DHT22;29781;49.480;8.512;2022-11-24T07:37:05;9.10;99.90
44117;DHT22;29781;49.480;8.512;2022-11-24T07:39:31;9.00;99.90
44117;DHT22;29781;49.480;8.512;2022-11-24T07:41:57;9.10;99.90
44117;DHT22;29781;49.480;8.512;2022-11-24T07:44:23;9.10;99.90
44117;DHT22;29781;49.480;8.512;2022-11-24T07:46:49;9.10;99.90
44117;DHT22;29781;49.480;8.512;2022-11-24T07:49:15;9.10;99.90
44117;DHT22;29781;49.480;8.512;2022-11-24T07:51:41;9.10;99.90
44117;DHT22;29781;49.480;8.512;2022-11-24T07:54:07;9.10;99.90
44117;DHT22;29781;49.480;8.512;2022-11-24T07:56:32;9.00;99.90
44117;DHT22;29781;49.480;8.512;2022-11-24T07:58:58;9.10;99.90
44117;DHT22;29781;49.480;8.512;2022-11-24T08:01:23;9.10;99.90
44117;DHT22;29781;49.480;8.512;2022-11-24T08:03:49;9.10;99.90
44117;DHT22;29781;49.480;8.512;2022-11-24T08:06:14;9.10;99.90
44117;DHT22;29781;49.480;8.512;2022-11-24T08:08:40;9.10;99.90
44117;DHT22;29781;49.480;8.512;2022-11-24T08:11:06;9.20;99.90
44117;DHT22;29781;49.480;8.512;2022-11-24T08:13:32;9.10;99.90
44117;DHT22;29781;49.480;8.512;2022-11-24T08:15:58;9.10;99.90
44117;DHT22;29781;49.480;8.512;2022-11-24T08:18:23;9.10;99.90
44117;DHT22;29781;49.480;8.512;2022-11-24T08:20:49;9.10;99.90
44117;DHT22;29781;49.480;8.512;2022-11-24T08:23:15;9.20;99.90
44117;DHT22;29781;49.480;8.512;2022-11-24T08:25:40;9.20;99.90
44117;DHT22;29781;49.480;8.512;2022-11-24T08:28:06;9.20;99.90
44117;DHT22;29781;49.480;8.512;2022-11-24T08:30:31;9.20;99.90
44117;DHT22;29781;49.480;8.512;2022-11-24T08:32:57;9.20;99.90
44117;DHT22;29781;49.480;8.512;2022-11-24T08:35:23;9.20;99.90
44117;DHT22;29781;49.480;8.512;2022-11-24T08:37:49;9.20;99.90
44117;DHT22;29781;49.480;8.512;2022-11-24T08:40:15;9.30;99.90
44117;DHT22;29781;49.480;8.512;2022-11-24T08:42:41;9.40;99.90
44117;DHT22;29781;49.480;8.512;2022-11-24T08:45:06;9.40;99.90
44117;DHT22;29781;49.480;8.512;2022-11-24T08:47:32;9.40;99.90
44117;DHT22;29781;49.480;8.512;2022-11-24T08:49:57;9.40;99.90
44117;DHT22;29781;49.480;8.512;2022-11-24T08:52:23;9.40;99.90
44117;DHT22;29781;49.480;8.512;2022-11-24T08:54:48;9.40;99.90
44117;DHT22;29781;49.480;8.512;2022-11-24T08:57:14;9.50;99.90
44117;DHT22;29781;49.480;8.512;2022-11-24T08:59:40;9.60;99.90
44117;DHT22;29781;49.480;8.512;2022-11-24T09:02:05;9.70;99.90
44117;DHT22;29781;49.480;8.512;2022-11-24T09:04:35;9.80;99.90
44117;DHT22;29781;49.480;8.512;2022-11-24T09:07:00;9.90;99.90
44117;DHT22;29781;49.480;8.512;2022-11-24T09:09:26;10.00;99.90
44117;DHT22;29781;49.480;8.512;2022-11-24T09:11:51;10.10;99.90
44117;DHT22;29781;49.480;8.512;2022-11-24T09:14:17;10.20;99.90
44117;DHT22;29781;49.480;8.512;2022-11-24T09:16:42;10.30;99.90
44117;DHT22;29781;49.480;8.512;2022-11-24T09:19:08;10.30;99.90
44117;DHT22;29781;49.480;8.512;2022-11-24T09:21:34;10.20;99.90
44117;DHT22;29781;49.480;8.512;2022-11-24T09:24:02;10.20;99.90
44117;DHT22;29781;49.480;8.512;2022-11-24T09:26:28;10.30;99.90
44117;DHT22;29781;49.480;8.512;2022-11-24T09:28:55;10.30;99.90
44117;DHT22;29781;49.480;8.512;2022-11-24T09:31:24;10.30;99.90
44117;DHT22;29781;49.480;8.512;2022-11-24T09:33:50;10.30;99.90
44117;DHT22;29781;49.480;8.512;2022-11-24T09:36:16;10.30;99.90
44117;DHT22;29781;49.480;8.512;2022-11-24T09:38:42;10.40;99.90
44117;DHT22;29781;49.480;8.512;2022-11-24T09:46:31;10.50;99.90
44117;DHT22;29781;49.480;8.512;2022-11-24T09:48:57;10.50;99.90
44117;DHT22;29781;49.480;8.512;2022-11-24T09:51:25;10.60;99.90
44117;DHT22;29781;49.480;8.512;2022-11-24T09:53:55;11.00;99.90
44117;DHT22;29781;49.480;8.512;2022-11-24T09:56:25;11.20;99.90
44117;DHT22;29781;49.480;8.512;2022-11-24T10:01:25;11.40;99.90
44117;DHT22;29781;49.480;8.512;2022-11-24T10:03:52;11.50;99.90
44117;DHT22;29781;49.480;8.512;2022-11-24T10:06:20;11.40;99.90
44117;DHT22;29781;49.480;8.512;2022-11-24T10:11:50;11.00;99.90
44117;DHT22;29781;49.480;8.512;2022-11-24T10:14:24;10.70;99.90
44117;DHT22;29781;49.480;8.512;2022-11-24T10:17:08;10.50;99.90
44117;DHT22;29781;49.480;8.512;2022-11-24T10:22:32;10.60;99.90
44117;DHT22;29781;49.480;8.512;2022-11-24T10:27:48;10.80;99.90
44117;DHT22;29781;49.480;8.512;2022-11-24T10:30:18;11.00;99.90
44117;DHT22;29781;49.480;8.512;2022-11-24T10:32:48;11.10;99.90
44117;DHT22;29781;49.480;8.512;2022-11-24T10:35:15;11.20;99.90
44117;DHT22;29781;49.480;8.512;2022-11-24T10:37:42;11.20;99.90
44117;DHT22;29781;49.480;8.512;2022-11-24T10:42:54;11.30;99.90
44117;DHT22;29781;49.480;8.512;2022-11-24T10:45:20;11.30;99.90
44117;DHT22;29781;49.480;8.512;2022-11-24T10:47:48;11.20;99.90
44117;DHT22;29781;49.480;8.512;2022-11-24T10:52:40;11.20;99.90
44117;DHT22;29781;49.480;8.512;2022-11-24T10:55:07;11.30;99.90
44117;DHT22;29781;49.480;8.512;2022-11-24T10:57:37;11.30;99.90
44117;DHT22;29781;49.480;8.512;2022-11-24T11:00:28;11.40;99.90
44117;DHT22;29781;49.480;8.512;2022-11-24T11:02:49;11.40;99.90
44117;DHT22;29781;49.480;8.512;2022-11-24T11:10:39;11.80;99.90
44117;DHT22;29781;49.480;8.512;2022-11-24T11:13:20;11.80;99.90
44117;DHT22;29781;49.480;8.512;2022-11-24T11:15:46;12.00;99.90
44117;DHT22;29781;49.480;8.512;2022-11-24T11:18:13;12.10;99.90
44117;DHT22;29781;49.480;8.512;2022-11-24T11:20:40;12.20;99.90
44117;DHT22;29781;49.480;8.512;2022-11-24T11:23:14;11.90;99.90
44117;DHT22;29781;49.480;8.512;2022-11-24T11:25:40;11.80;99.90
44117;DHT22;29781;49.480;8.512;2022-11-24T11:30:58;12.20;99.90
44117;DHT22;29781;49.480;8.512;2022-11-24T11:33:25;12.30;99.90
44117;DHT22;29781;49.480;8.512;2022-11-24T11:35:52;12.60;99.90
44117;DHT22;29781;49.480;8.512;2022-11-24T11:38:18;13.00;99.90
44117;DHT22;29781;49.480;8.512;2022-11-24T11:40:44;13.40;99.90
44117;DHT22;29781;49.480;8.512;2022-11-24T11:43:30;13.40;99.90
44117;DHT22;29781;49.480;8.512;2022-11-24T11:48:27;14.00;99.90
44117;DHT22;29781;49.480;8.512;2022-11-24T11:50:57;14.00;99.90
44117;DHT22;29781;49.480;8.512;2022-11-24T11:53:34;14.10;99.90
44117;DHT22;29781;49.480;8.512;2022-11-24T12:01:20;13.80;99.90
44117;DHT22;29781;49.480;8.512;2022-11-24T12:03:52;13.70;99.90
44117;DHT22;29781;49.480;8.512;2022-11-24T12:09:06;14.20;99.90
44117;DHT22;29781;49.480;8.512;2022-11-24T12:11:36;14.50;99.90
44117;DHT22;29781;49.480;8.512;2022-11-24T12:22:05;17.10;99.90
44117;DHT22;29781;49.480;8.512;2022-11-24T12:27:35;16.50;99.90
44117;DHT22;29781;49.480;8.512;2022-11-24T12:30:03;16.10;99.90
44117;DHT22;29781;49.480;8.512;2022-11-24T12:32:39;15.60;99.90
44117;DHT22;29781;49.480;8.512;2022-11-24T12:35:18;15.10;99.90
44117;DHT22;29781;49.480;8.512;2022-11-24T12:40:33;14.00;99.90
44117;DHT22;29781;49.480;8.512;2022-11-24T12:43:06;13.60;99.90
44117;DHT22;29781;49.480;8.512;2022-11-24T12:46:37;13.40;99.90
44117;DHT22;29781;49.480;8.512;2022-11-24T12:50:57;13.00;99.90
44117;DHT22;29781;49.480;8.512;2022-11-24T12:53:23;12.70;99.90
44117;DHT22;29781;49.480;8.512;2022-11-24T12:55:50;12.60;99.90
44117;DHT22;29781;49.480;8.512;2022-11-24T12:58:23;12.60;99.90
44117;DHT22;29781;49.480;8.512;2022-11-24T13:03:26;12.40;99.90
44117;DHT22;29781;49.480;8.512;2022-11-24T13:06:00;12.40;99.90
44117;DHT22;29781;49.480;8.512;2022-11-24T13:08:27;12.50;99.90
44117;DHT22;29781;49.480;8.512;2022-11-24T13:10:53;12.50;99.90
44117;DHT22;29781;49.480;8.512;2022-11-24T13:13:20;12.60;99.90
44117;DHT22;29781;49.480;8.512;2022-11-24T13:21:02;12.70;99.90
44117;DHT22;29781;49.480;8.512;2022-11-24T13:23:27;12.70;99.90
44117;DHT22;29781;49.480;8.512;2022-11-24T13:29:00;12.40;99.90
44117;DHT22;29781;49.480;8.512;2022-11-24T13:31:29;12.40;99.90
44117;DHT22;29781;49.480;8.512;2022-11-24T13:33:54;12.20;99.90
44117;DHT22;29781;49.480;8.512;2022-11-24T13:38:51;12.20;99.90
44117;DHT22;29781;49.480;8.512;2022-11-24T13:46:57;12.20;99.90
44117;DHT22;29781;49.480;8.512;2022-11-24T13:49:23;12.20;99.90
44117;DHT22;29781;49.480;8.512;2022-11-24T13:51:54;12.20;99.90
44117;DHT22;29781;49.480;8.512;2022-11-24T13:54:20;12.20;99.90
44117;DHT22;29781;49.480;8.512;2022-11-24T13:56:46;12.10;99.90
44117;DHT22;29781;49.480;8.512;2022-11-24T13:59:16;12.10;99.90
44117;DHT22;29781;49.480;8.512;2022-11-24T14:01:42;12.10;99.90
44117;DHT22;29781;49.480;8.512;2022-11-24T14:04:20;12.10;99.90
44117;DHT22;29781;49.480;8.512;2022-11-24T14:06:47;12.10;99.90
44117;DHT22;29781;49.480;8.512;2022-11-24T14:12:05;12.20;99.90
44117;DHT22;29781;49.480;8.512;2022-11-24T14:14:32;12.20;99.90
44117;DHT22;29781;49.480;8.512;2022-11-24T14:17:12;12.20;99.90
44117;DHT22;29781;49.480;8.512;2022-11-24T14:19:39;12.20;99.90
44117;DHT22;29781;49.480;8.512;2022-11-24T14:22:05;12.20;99.90
44117;DHT22;29781;49.480;8.512;2022-11-24T14:24:31;12.20;99.90
44117;DHT22;29781;49.480;8.512;2022-11-24T14:26:57;12.20;99.90
44117;DHT22;29781;49.480;8.512;2022-11-24T14:29:23;12.10;99.90
44117;DHT22;29781;49.480;8.512;2022-11-24T14:34:18;11.90;99.90
44117;DHT22;29781;49.480;8.512;2022-11-24T14:36:49;11.90;99.90
44117;DHT22;29781;49.480;8.512;2022-11-24T14:39:16;11.80;99.90
44117;DHT22;29781;49.480;8.512;2022-11-24T14:41:43;12.00;99.90
44117;DHT22;29781;49.480;8.512;2022-11-24T14:46:49;12.00;99.90
44117;DHT22;29781;49.480;8.512;2022-11-24T14:49:15;12.00;99.90
44117;DHT22;29781;49.480;8.512;2022-11-24T14:51:42;12.00;99.90
44117;DHT22;29781;49.480;8.512;2022-11-24T14:54:18;12.10;99.90
44117;DHT22;29781;49.480;8.512;2022-11-24T14:57:04;12.10;99.90
44117;DHT22;29781;49.480;8.512;2022-11-24T14:59:31;12.20;99.90
44117;DHT22;29781;49.480;8.512;2022-11-24T15:01:59;12.10;99.90
44117;DHT22;29781;49.480;8.512;2022-11-24T15:04:28;11.90;99.90
44117;DHT22;29781;49.480;8.512;2022-11-24T15:09:30;11.70;99.90
44117;DHT22;29781;49.480;8.512;2022-11-24T15:11:56;11.60;99.90
44117;DHT22;29781;49.480;8.512;2022-11-24T15:14:33;11.60;99.90
44117;DHT22;29781;49.480;8.512;2022-11-24T15:17:00;11.60;99.90
44117;DHT22;29781;49.480;8.512;2022-11-24T15:19:29;11.60;99.90
44117;DHT22;29781;49.480;8.512;2022-11-24T15:21:55;11.60;99.90
44117;DHT22;29781;49.480;8.512;2022-11-24T15:24:20;11.60;99.90
44117;DHT22;29781;49.480;8.512;2022-11-24T15:26:46;11.60;99.90
44117;DHT22;29781;49.480;8.512;2022-11-24T15:29:12;11.60;99.90
44117;DHT22;29781;49.480;8.512;2022-11-24T15:31:38;11.60;99.90
44117;DHT22;29781;49.480;8.512;2022-11-24T15:34:04;11.50;99.90
44117;DHT22;29781;49.480;8.512;2022-11-24T15:36:29;11.40;99.90
44117;DHT22;29781;49.480;8.512;2022-11-24T15:38:55;11.40;99.90
44117;DHT22;29781;49.480;8.512;2022-11-24T15:41:21;11.40;99.90
44117;DHT22;29781;49.480;8.512;2022-11-24T15:43:48;11.30;99.90
44117;DHT22;29781;49.480;8.512;2022-11-24T15:46:14;11.30;99.90
44117;DHT22;29781;49.480;8.512;2022-11-24T15:48:40;11.20;99.90
44117;DHT22;29781;49.480;8.512;2022-11-24T15:51:06;11.20;99.90
44117;DHT22;29781;49.480;8.512;2022-11-24T15:53:35;11.20;99.90
44117;DHT22;29781;49.480;8.512;2022-11-24T15:56:02;11.20;99.90
44117;DHT22;29781;49.480;8.512;2022-11-24T15:58:29;11.20;99.90
44117;DHT22;29781;49.480;8.512;2022-11-24T16:00:55;11.10;99.90
44117;DHT22;29781;49.480;8.512;2022-11-24T16:03:20;11.10;99.90
44117;DHT22;29781;49.480;8.512;2022-11-24T16:05:46;11.00;99.90
44117;DHT22;29781;49.480;8.512;2022-11-24T16:08:13;11.00;99.90
44117;DHT22;29781;49.480;8.512;2022-11-24T16:10:39;11.00;99.90
44117;DHT22;29781;49.480;8.512;2022-11-24T16:13:05;10.90;99.90
44117;DHT22;29781;49.480;8.512;2022-11-24T16:15:30;10.90;99.90
44117;DHT22;29781;49.480;8.512;2022-11-24T16:17:56;10.90;99.90
44117;DHT22;29781;49.480;8.512;2022-11-24T16:20:22;10.80;99.90
44117;DHT22;29781;49.480;8.512;2022-11-24T16:22:48;10.80;99.90
44117;DHT22;29781;49.480;8.512;2022-11-24T16:25:13;10.70;99.90
44117;DHT22;29781;49.480;8.512;2022-11-24T16:27:39;10.70;99.90
44117;DHT22;29781;49.480;8.512;2022-11-24T16:30:05;10.60;99.90
44117;DHT22;29781;49.480;8.512;2022-11-24T16:32:30;10.50;99.90
44117;DHT22;29781;49.480;8.512;2022-11-24T16:34:56;10.40;99.90
44117;DHT22;29781;49.480;8.512;2022-11-24T16:37:21;10.30;99.90
44117;DHT22;29781;49.480;8.512;2022-11-24T16:39:47;10.30;99.90
44117;DHT22;29781;49.480;8.512;2022-11-24T16:42:13;10.30;99.90
44117;DHT22;29781;49.480;8.512;2022-11-24T16:44:39;10.30;99.90
44117;DHT22;29781;49.480;8.512;2022-11-24T16:47:05;10.20;99.90
44117;DHT22;29781;49.480;8.512;2022-11-24T16:49:30;10.10;99.90
44117;DHT22;29781;49.480;8.512;2022-11-24T16:51:56;10.10;99.90
44117;DHT22;29781;49.480;8.512;2022-11-24T16:54:21;10.00;99.90
44117;DHT22;29781;49.480;8.512;2022-11-24T16:56:47;9.90;99.90
44117;DHT22;29781;49.480;8.512;2022-11-24T16:59:12;9.90;99.90
44117;DHT22;29781;49.480;8.512;2022-11-24T17:01:38;9.80;99.90
44117;DHT22;29781;49.480;8.512;2022-11-24T17:04:05;9.80;99.90
44117;DHT22;29781;49.480;8.512;2022-11-24T17:06:31;9.70;99.90
44117;DHT22;29781;49.480;8.512;2022-11-24T17:08:56;9.80;99.90
44117;DHT22;29781;49.480;8.512;2022-11-24T17:11:23;9.70;99.90